createdAt,value
2018-12-27T11:08:12.395Z,15.18
2018-12-27T11:13:24.516Z,15.25
2018-12-27T11:15:58.341Z,15.20
2018-12-27T11:18:30.676Z,15.24
2018-12-27T11:21:00.527Z,14.84
2018-12-27T11:23:31.468Z,14.79
2018-12-27T11:26:02.758Z,14.32
2018-12-27T11:28:34.167Z,14.90
2018-12-27T11:31:04.177Z,14.26
2018-12-27T11:33:35.679Z,14.32
2018-12-27T11:36:05.627Z,14.32
2018-12-27T11:38:35.599Z,15.21
2018-12-27T11:41:05.521Z,15.77
2018-12-27T11:43:35.339Z,15.24
2018-12-27T11:46:05.090Z,14.66
2018-12-27T11:48:35.600Z,14.73
2018-12-27T11:51:05.389Z,14.17
2018-12-27T11:53:35.383Z,15.20
2018-12-27T11:56:05.254Z,15.57
2018-12-27T11:58:35.084Z,14.47
2018-12-27T12:01:04.949Z,15.15
2018-12-27T12:03:36.364Z,15.02
2018-12-27T12:06:06.145Z,14.86
2018-12-27T12:08:36.305Z,15.67
2018-12-27T12:11:06.679Z,15.85
2018-12-27T12:13:36.944Z,16.37
2018-12-27T12:16:07.012Z,16.20
2018-12-27T12:18:37.934Z,16.18
2018-12-27T12:21:09.266Z,15.65
2018-12-27T12:23:39.104Z,16.29
2018-12-27T12:26:09.073Z,16.38
2018-12-27T12:28:38.968Z,16.29
2018-12-27T12:31:08.756Z,15.85
2018-12-27T12:33:38.989Z,15.31
2018-12-27T12:36:10.856Z,15.95
2018-12-27T12:38:41.581Z,15.71
2018-12-27T12:41:11.588Z,16.24
2018-12-27T12:43:41.613Z,16.16
2018-12-27T12:46:11.631Z,16.33
2018-12-27T12:48:41.459Z,16.70
2018-12-27T12:51:11.368Z,16.91
2018-12-27T12:53:41.368Z,17.08
2018-12-27T12:56:13.274Z,16.89
2018-12-27T12:58:43.153Z,17.26
2018-12-27T13:01:13.068Z,17.31
2018-12-27T13:03:44.224Z,16.87
2018-12-27T13:06:17.955Z,16.45
2018-12-27T13:08:45.674Z,16.37
2018-12-27T13:11:21.684Z,16.21
2018-12-27T13:13:52.099Z,16.37
2018-12-27T13:16:22.193Z,15.99
2018-12-27T13:18:54.334Z,15.77
2018-12-27T13:21:24.293Z,15.32
2018-12-27T13:23:54.181Z,14.85
2018-12-27T13:26:24.013Z,14.70
2018-12-27T13:28:55.204Z,14.56
2018-12-27T13:31:25.224Z,14.00
2018-12-27T13:33:57.263Z,14.28
2018-12-27T13:36:31.885Z,14.46
2018-12-27T13:39:03.022Z,14.55
2018-12-27T13:41:34.289Z,14.81
2018-12-27T13:44:04.564Z,14.84
2018-12-27T13:46:42.116Z,14.92
2018-12-27T13:49:12.678Z,14.93
2018-12-27T13:51:47.388Z,15.17
2018-12-27T13:54:18.380Z,15.32
2018-12-27T13:56:54.050Z,15.29
2018-12-27T13:59:27.181Z,14.97
2018-12-27T14:01:57.119Z,14.84
2018-12-27T14:04:29.245Z,14.84
2018-12-27T14:07:03.279Z,14.92
2018-12-27T14:09:34.976Z,14.66
2018-12-27T14:12:10.551Z,14.62
2018-12-27T14:14:42.812Z,14.62
2018-12-27T14:17:14.838Z,14.35
2018-12-27T14:19:45.779Z,13.96
2018-12-27T14:22:20.657Z,13.12
2018-12-27T14:24:50.448Z,12.41
2018-12-27T14:27:24.754Z,12.00
2018-12-27T14:29:56.141Z,11.46
2018-12-27T14:32:26.204Z,11.19
2018-12-27T14:34:57.338Z,10.89
2018-12-27T14:37:31.067Z,10.64
2018-12-27T14:40:00.879Z,10.37
2018-12-27T14:42:39.606Z,10.10
2018-12-27T14:45:14.726Z,10.07
2018-12-27T14:47:44.670Z,10.05
2018-12-27T14:50:16.301Z,10.16
2018-12-27T14:52:48.386Z,10.10
2018-12-27T14:55:18.558Z,10.18
2018-12-27T14:57:52.367Z,9.99
2018-12-27T15:00:26.138Z,9.66
2018-12-27T15:03:01.175Z,9.29
2018-12-27T15:05:35.837Z,9.61
2018-12-27T15:08:06.085Z,9.61
2018-12-27T15:10:35.884Z,9.31
2018-12-27T15:13:06.837Z,9.07
2018-12-27T15:15:36.655Z,9.14
2018-12-27T15:18:06.671Z,9.12
2018-12-27T15:20:36.706Z,9.06
2018-12-27T15:23:07.055Z,9.07
2018-12-27T15:25:37.056Z,8.98
2018-12-27T15:28:07.063Z,8.92
2018-12-27T15:30:37.070Z,8.96
2018-12-27T15:33:07.003Z,8.98
2018-12-27T15:35:38.353Z,8.79
2018-12-27T15:38:08.369Z,8.67
2018-12-27T15:40:38.279Z,8.71
2018-12-27T15:43:08.190Z,8.76
2018-12-27T15:45:38.025Z,8.57
2018-12-27T15:48:07.926Z,8.46
2018-12-27T15:50:37.942Z,8.44
2018-12-27T15:53:07.859Z,8.45
2018-12-27T15:55:37.777Z,8.43
2018-12-27T15:58:07.579Z,8.41
2018-12-27T16:00:37.396Z,8.35
2018-12-27T16:03:08.627Z,8.47
2018-12-27T16:05:38.545Z,8.44
2018-12-27T16:08:08.351Z,8.43
2018-12-27T16:10:38.765Z,8.34
2018-12-27T16:13:08.641Z,8.26
2018-12-27T16:15:39.144Z,8.30
2018-12-27T16:18:09.065Z,8.35
2018-12-27T16:20:38.882Z,8.29
2018-12-27T16:23:10.437Z,8.21
2018-12-27T16:25:41.968Z,8.17
2018-12-27T16:28:12.399Z,7.99
2018-12-27T16:30:42.510Z,7.90
2018-12-27T16:33:12.593Z,7.93
2018-12-27T16:35:43.989Z,7.88
2018-12-27T16:38:14.142Z,7.74
2018-12-27T16:40:44.010Z,7.54
2018-12-27T16:43:14.160Z,7.51
2018-12-27T16:45:58.597Z,7.51
2018-12-27T16:48:29.672Z,7.43
2018-12-27T16:50:59.810Z,7.28
2018-12-27T16:53:31.623Z,7.20
2018-12-27T16:56:01.733Z,7.07
2018-12-27T16:58:31.679Z,7.09
2018-12-27T17:01:03.537Z,7.09
2018-12-27T17:03:38.335Z,7.08
2018-12-27T17:06:08.969Z,7.17
2018-12-27T17:08:39.193Z,7.08
2018-12-27T17:11:10.852Z,7.08
2018-12-27T17:13:40.797Z,6.94
2018-12-27T17:16:11.020Z,6.85
2018-12-27T17:18:41.276Z,6.73
2018-12-27T17:21:12.781Z,6.54
2018-12-27T17:23:42.805Z,6.74
2018-12-27T17:26:13.059Z,6.74
2018-12-27T17:28:43.726Z,6.63
2018-12-27T17:31:14.433Z,6.43
2018-12-27T17:33:44.318Z,6.23
2018-12-27T17:36:14.850Z,6.05
2018-12-27T17:38:45.315Z,5.90
2018-12-27T17:41:16.610Z,5.72
2018-12-27T17:43:48.758Z,5.70
2018-12-27T17:46:18.636Z,5.90
2018-12-27T17:48:48.509Z,5.96
2018-12-27T17:51:18.982Z,5.88
2018-12-27T17:53:50.399Z,5.81
2018-12-27T17:56:21.711Z,5.92
2018-12-27T17:58:52.940Z,6.10
2018-12-27T18:01:23.631Z,6.26
2018-12-27T18:03:58.160Z,6.77
2018-12-27T18:06:31.255Z,6.92
2018-12-27T18:09:01.403Z,6.92
2018-12-27T18:11:37.953Z,7.14
2018-12-27T18:14:08.922Z,7.25
2018-12-27T18:16:43.587Z,7.32
2018-12-27T18:19:14.363Z,7.43
2018-12-27T18:21:54.004Z,7.48
2018-12-27T18:24:25.940Z,7.49
2018-12-27T18:26:58.874Z,7.55
2018-12-27T18:29:32.659Z,7.56
2018-12-27T18:32:06.245Z,7.54
2018-12-27T18:34:37.387Z,7.53
2018-12-27T18:39:44.270Z,7.57
2018-12-27T18:42:18.545Z,7.54
2018-12-27T18:44:49.537Z,7.53
2018-12-27T18:47:19.417Z,7.51
2018-12-27T18:49:50.495Z,7.55
2018-12-27T18:52:23.843Z,7.55
2018-12-27T18:54:53.926Z,7.58
2018-12-27T18:57:31.965Z,7.49
2018-12-27T19:00:01.878Z,7.40
2018-12-27T19:02:41.933Z,7.34
2018-12-27T19:05:11.865Z,7.32
2018-12-27T19:07:45.142Z,7.30
2018-12-27T19:10:13.498Z,7.17
2018-12-27T19:13:07.204Z,7.07
2018-12-27T19:15:40.340Z,6.98
2018-12-27T19:18:13.247Z,6.91
2018-12-27T19:20:45.458Z,6.77
2018-12-27T19:23:16.526Z,6.73
2018-12-27T19:25:46.560Z,6.78
2018-12-27T19:28:16.562Z,6.77
2018-12-27T19:30:46.483Z,6.73
2018-12-27T19:33:17.220Z,6.73
2018-12-27T19:35:47.869Z,6.74
2018-12-27T19:38:17.693Z,6.77
2018-12-27T19:40:47.885Z,6.80
2018-12-27T19:43:17.827Z,6.91
2018-12-27T19:45:47.680Z,6.91
2018-12-27T19:48:18.940Z,7.14
2018-12-27T19:50:50.443Z,7.35
2018-12-27T19:53:20.434Z,7.03
2018-12-27T19:55:51.497Z,7.03
2018-12-27T19:58:22.595Z,6.90
2018-12-27T20:00:53.563Z,6.68
2018-12-27T20:03:26.126Z,6.68
2018-12-27T20:05:56.162Z,6.74
2018-12-27T20:08:26.480Z,6.83
2018-12-27T20:10:57.050Z,6.83
2018-12-27T20:13:27.165Z,6.85
2018-12-27T20:15:58.405Z,6.89
2018-12-27T20:18:29.119Z,6.89
2018-12-27T20:21:00.672Z,6.89
2018-12-27T20:23:31.000Z,6.99
2018-12-27T20:26:00.780Z,7.16
2018-12-27T20:28:30.973Z,7.18
2018-12-27T20:31:02.672Z,7.21
2018-12-27T20:33:34.149Z,7.04
2018-12-27T20:36:04.010Z,6.84
2018-12-27T20:38:34.228Z,6.67
2018-12-27T20:41:04.196Z,6.57
2018-12-27T20:43:35.954Z,6.57
2018-12-27T20:46:06.221Z,6.44
2018-12-27T20:48:36.420Z,6.44
2018-12-27T20:51:06.663Z,6.35
2018-12-27T20:53:36.975Z,6.34
2018-12-27T20:56:07.493Z,6.16
2018-12-27T20:58:38.435Z,6.12
2018-12-27T21:01:09.839Z,6.12
2018-12-27T21:03:40.051Z,6.22
2018-12-27T21:06:09.912Z,6.32
2018-12-27T21:08:41.507Z,6.32
2018-12-27T21:11:12.858Z,6.18
2018-12-27T21:13:43.863Z,6.12
2018-12-27T21:16:16.570Z,6.14
2018-12-27T21:18:50.094Z,6.12
2018-12-27T21:21:21.097Z,6.14
2018-12-27T21:23:55.703Z,6.30
2018-12-27T21:26:28.519Z,6.28
2018-12-27T21:29:00.385Z,6.25
2018-12-27T21:31:47.006Z,6.16
2018-12-27T21:34:34.662Z,5.77
2018-12-27T21:37:11.252Z,5.77
2018-12-27T21:39:42.100Z,5.59
2018-12-27T21:42:15.946Z,5.50
2018-12-27T21:44:46.853Z,5.32
2018-12-27T21:47:18.548Z,5.31
2018-12-27T21:49:50.168Z,5.22
2018-12-27T21:52:25.068Z,5.03
2018-12-27T21:54:58.320Z,5.06
2018-12-27T21:57:34.568Z,5.20
2018-12-27T22:00:07.913Z,5.48
2018-12-27T22:02:42.626Z,5.72
2018-12-27T22:05:17.658Z,5.44
2018-12-27T22:07:48.972Z,5.22
2018-12-27T22:10:19.019Z,5.12
2018-12-27T22:12:49.388Z,5.06
2018-12-27T22:15:21.062Z,5.09
2018-12-27T22:18:01.747Z,5.04
2018-12-27T22:20:38.084Z,5.01
2018-12-27T22:23:08.339Z,4.81
2018-12-27T22:25:38.820Z,4.64
2018-12-27T22:28:09.082Z,4.75
2018-12-27T22:30:39.070Z,4.81
2018-12-27T22:33:09.079Z,4.77
2018-12-27T22:35:38.909Z,4.67
2018-12-27T22:38:10.425Z,4.59
2018-12-27T22:40:40.294Z,4.53
2018-12-27T22:43:10.337Z,4.60
2018-12-27T22:45:40.213Z,4.62
2018-12-27T22:48:11.709Z,4.57
2018-12-27T22:50:41.987Z,4.54
2018-12-27T22:53:11.902Z,4.44
2018-12-27T22:55:44.708Z,4.44
2018-12-27T22:58:14.609Z,4.46
2018-12-27T23:00:45.454Z,4.71
2018-12-27T23:03:17.580Z,5.04
2018-12-27T23:06:04.084Z,5.49
2018-12-27T23:09:02.797Z,5.80
2018-12-27T23:11:38.760Z,5.76
2018-12-27T23:14:19.328Z,6.05
2018-12-27T23:17:13.153Z,6.06
2018-12-27T23:19:46.546Z,6.06
2018-12-27T23:22:16.349Z,6.04
2018-12-27T23:24:46.452Z,5.96
2018-12-27T23:27:16.352Z,6.04
2018-12-27T23:29:51.602Z,5.94
2018-12-27T23:32:22.221Z,5.91
2018-12-27T23:34:52.045Z,5.88
2018-12-27T23:37:23.623Z,5.65
2018-12-27T23:39:53.314Z,5.44
2018-12-27T23:42:26.275Z,5.29
2018-12-27T23:44:57.626Z,5.33
2018-12-27T23:47:30.493Z,5.08
2018-12-27T23:50:03.845Z,4.89
2018-12-27T23:52:35.679Z,4.79
2018-12-27T23:55:06.584Z,4.91
2018-12-27T23:57:36.875Z,5.05
